• Join FlightAware (Why Join?)
  • Login
  • US Flag 
12:01AM EDT


 

Airport Tracker/Info


-or-


 

Live Flight TrackerFlight Track Log ✈ UAL3835 ✈ 07-May-2013 ✈ KSDF - KEWR

Flight Track Log - Related Links

Times and Time Zones

All times are in EDT time to prevent confusion due to time zone crossing. See the UAL3835 flight status page for this flight to view local times or setup timezone preferences in your user account.

Time Position Orientation Groundspeed Altitude Reporting Facility
EDT Latitude Longitude Course Direction KTS MPH feet Rate Location/Type
07:16PM 38.2500 -85.7500 99° East 187 215 3,300  Level Louisville TRACON
07:17PM 38.2808 -85.7136 43° Northeast 265 305 4,300 1,680 Climbing Indianapolis Center
07:18PM 38.0667 -85.3285 90° East  Level FlightAware Approximate
07:18PM 38.2847 -85.6314 87° East 260 299 6,600  Level Indianapolis Center
07:19PM 38.0536 -85.2114 103° East  Level FlightAware Approximate
07:19PM 38.2133 -85.5569 141° Southeast 275 316 9,300  Level Indianapolis Center
07:20PM 38.0333 -85.0953 90° East  Level FlightAware Approximate
07:20PM 38.1500 -85.4939 142° Southeast 285 328 11,000  Level Indianapolis Center
07:21PM 38.0182 -84.9622 99° East  Level FlightAware Approximate
07:21PM 38.0897 -85.4128 133° Southeast 313 360 12,100  Level Indianapolis Center
07:22PM 38.0728 -85.2953 100° East 338 389 13,100 1,200 Climbing Indianapolis Center
07:23PM 38.0542 -85.1622 100° East 345 397 14,700 1,500 Climbing Indianapolis Center
07:24PM 38.0386 -85.0408 99° East 346 398 16,200 1,440 Climbing Indianapolis Center
07:25PM 38.0239 -84.9211 99° East 344 396 17,700 1,380 Climbing Indianapolis Center
07:26PM 38.0078 -84.8031 100° East 339 390 19,100 1,380 Climbing Indianapolis Center
07:27PM 37.9925 -84.6806 99° East 348 400 20,600 1,500 Climbing Indianapolis Center
07:28PM 37.9750 -84.5375 99° East 351 404 22,200 1,140 Climbing Indianapolis Center
07:29PM 37.9631 -84.4117 97° East 358 412 23,000 360 Climbing Indianapolis Center
07:30PM 37.9586 -84.2758 92° East 382 440 23,000 120 Level Indianapolis Center
07:31PM 37.9514 -84.1303 94° East 406 467 23,300 720 Climbing Indianapolis Center
07:32PM 37.9456 -83.9875 93° East 408 470 24,500 1,140 Climbing Indianapolis Center
07:33PM 37.9386 -83.8483 94° East 397 457 25,700 1,200 Climbing Indianapolis Center
07:34PM 37.9333 -83.7122 93° East 387 445 27,000 1,260 Climbing Indianapolis Center
07:35PM 37.9250 -83.5586 94° East 376 433 28,400 1,200 Climbing Indianapolis Center
07:36PM 37.9192 -83.4339 93° East 359 413 29,600 1,200 Climbing Indianapolis Center
07:37PM 37.9128 -83.3089 94° East 354 407 30,900 1,200 Climbing Indianapolis Center
07:38PM 37.9064 -83.1861 94° East 350 403 32,100 1,140 Climbing Indianapolis Center
07:39PM 37.9000 -83.0644 94° East 346 398 33,300 1,020 Climbing Indianapolis Center
07:40PM 37.8928 -82.9422 94° East 348 400 34,300 780 Climbing Indianapolis Center
07:42PM 37.8875 -82.8242 93° East 340 391 35,000 300 Climbing Indianapolis Center
07:43PM 37.8783 -82.6775 94° East 354 407 35,000  Level Indianapolis Center
07:44PM 37.8711 -82.5394 94° East 385 443 35,000  Level Indianapolis Center
07:45PM 37.8631 -82.3958 94° East 404 465 35,000  Level Indianapolis Center
07:46PM 37.8544 -82.2458 94° East 422 486 35,000  Level Indianapolis Center
07:47PM 37.8469 -82.1075 94° East 425 489 35,000  Level Indianapolis Center
07:48PM 37.8361 -81.9447 95° East 429 494 35,000  Level Indianapolis Center
07:49PM 37.8261 -81.8003 95° East 413 475 35,000  Level Indianapolis Center
07:50PM 37.8175 -81.6608 94° East 399 459 35,000  Level Indianapolis Center
07:51PM 37.8064 -81.4953 95° East 402 463 35,000  Level Indianapolis Center
07:52PM 37.7967 -81.3678 95° East 404 465 35,000  Level Indianapolis Center
07:53PM 37.7878 -81.2392 95° East 392 451 35,000  Level Washington Center
07:54PM 37.7819 -81.0942 93° East 390 449 35,000  Level Washington Center
07:55PM 37.7908 -80.9475 86° East 395 455 35,000  Level Washington Center
07:56PM 37.8014 -80.8011 85° East 407 468 35,000  Level Washington Center
07:57PM 37.8094 -80.6650 86° East 427 491 35,000  Level Washington Center
07:58PM 37.8219 -80.5158 84° East 427 491 35,000  Level Washington Center
07:59PM 37.8300 -80.3692 86° East 420 483 35,000  Level Washington Center
08:00PM 37.8378 -80.2250 86° East 415 478 35,000  Level Washington Center
08:01PM 37.8475 -80.0783 85° East 415 478 35,000  Level Washington Center
08:02PM 37.8597 -79.9108 85° East 424 488 35,000  Level Washington Center
08:03PM 37.8675 -79.7558 86° East 430 495 35,000  Level Washington Center
08:04PM 37.8767 -79.6039 86° East 430 495 35,000  Level Washington Center
08:05PM 37.8861 -79.4464 86° East 436 502 35,000  Level Washington Center
08:06PM 37.8950 -79.2942 86° East 442 509 35,000  Level Washington Center
08:07PM 37.9011 -79.1656 87° East 420 483 35,000  Level Washington Center
08:08PM 37.9156 -79.0269 82° East 406 467 35,000 480 Level Washington Center
08:09PM 37.9297 -78.8906 82° East 401 461 36,000 900 Climbing Washington Center
08:10PM 37.9458 -78.7569 81° East 396 456 36,800 480 Climbing Washington Center
08:11PM 37.9619 -78.6181 82° East 390 449 37,000 60 Climbing Washington Center
08:12PM 37.9825 -78.4608 81° East 395 455 37,000  Level Washington Center
08:13PM 38.0006 -78.3111 81° East 410 472 37,000  Level Washington Center
08:14PM 38.0142 -78.1719 83° East 428 493 37,000  Level Washington Center
08:15PM 38.0753 -78.0369 60° Northeast 422 486 37,000  Level Washington Center
08:16PM 38.1386 -77.9044 59° Northeast 427 491 37,000  Level Washington Center
08:17PM 38.2056 -77.7744 57° Northeast 432 497 37,000  Level Washington Center
08:18PM 38.2683 -77.6467 58° Northeast 432 497 37,000  Level Washington Center
08:19PM 38.3286 -77.5239 58° Northeast 419 482 37,000  Level Washington Center
08:20PM 38.3892 -77.3956 59° Northeast 419 482 37,000  Level Washington Center
08:21PM 38.4514 -77.2700 58° Northeast 419 482 37,000  Level Washington Center
08:22PM 38.5156 -77.1386 58° Northeast 424 488 37,000  Level Washington Center
08:23PM 38.5778 -77.0072 59° Northeast 424 488 37,000  Level Washington Center
08:24PM 38.6397 -76.8756 59° Northeast 424 488 37,000  Level Washington Center
08:25PM 38.7056 -76.7461 57° Northeast 424 488 37,000 -420 Level Washington Center
08:26PM 38.7961 -76.6383 43° Northeast 429 494 36,200 -900 Descending Washington Center
08:27PM 38.8867 -76.5358 41° Northeast 429 494 35,300 -1,020 Descending Washington Center
08:28PM 38.9728 -76.4381 41° Northeast 423 487 34,200 -1,620 Descending Washington Center
08:29PM 39.0528 -76.3453 42° Northeast 408 470 32,100 -2,220 Descending Washington Center
08:30PM 39.1303 -76.2525 43° Northeast 385 443 29,700 -2,460 Descending Washington Center
08:31PM 39.2206 -76.1517 41° Northeast 373 429 27,200 -1,380 Descending Washington Center
08:32PM 39.3000 -76.0583 42° Northeast 384 442 27,000 -120 Descending Washington Center
08:33PM 39.3756 -75.9700 42° Northeast 389 448 27,000  Level Washington Center
08:34PM 39.4611 -75.8658 43° Northeast 399 459 27,000 -660 Level Washington Center
08:35PM 39.5531 -75.7611 41° Northeast 412 474 25,700 -1,860 Descending Washington Center
08:36PM 39.6447 -75.6508 43° Northeast 427 491 23,300 -2,400 Descending Washington Center
08:37PM 39.7344 -75.5456 42° Northeast 434 499 20,900 -2,280 Descending Washington Center
08:38PM 39.8178 -75.4431 43° Northeast 422 486 18,800 -2,040 Descending Washington Center
08:39PM 39.8944 -75.3508 43° Northeast 395 455 16,900 -1,980 Descending Washington Center
08:40PM 39.9672 -75.2639 42° Northeast 368 423 14,900 -2,100 Descending Washington Center
08:41PM 40.0400 -75.1714 44° Northeast 363 418 12,800 -1,560 Descending Washington Center
08:43PM 40.1833 -75.0000 42° Northeast 329 379 10,500 -1,320 Descending New York TRACON
08:43PM 40.2333 -74.9333 45° Northeast 293 337 9,100 -1,260 Descending New York TRACON
08:44PM 40.2833 -74.8500 52° Northeast 272 313 8,100 -900 Descending New York TRACON
08:45PM 40.3333 -74.7833 45° Northeast 261 300 7,300 -960 Descending New York TRACON
08:46PM 40.3833 -74.7167 45° Northeast 251 289 6,200 -600 Descending New York TRACON
08:47PM 40.4333 -74.6667 37° Northeast 257 296 6,100 -120 Descending New York TRACON
08:48PM 40.5167 -74.6500 North 271 312 6,000 -60 Descending New York TRACON
08:49PM 40.5833 -74.6667 349° North 283 326 6,000  Level New York TRACON
08:50PM 40.6667 -74.6833 351° North 286 329 6,000  Level New York TRACON
08:51PM 40.7333 -74.6667 11° North 269 310 6,000  Level New York TRACON
08:52PM 40.8000 -74.6167 30° Northeast 259 298 6,000  Level New York TRACON
08:53PM 40.8500 -74.5667 37° Northeast 264 304 6,000  Level New York TRACON
08:54PM 40.9167 -74.5167 30° Northeast 264 304 6,000 -480 Level New York TRACON
08:55PM 40.9333 -74.4167 78° East 246 283 5,100 -540 Descending New York TRACON
08:56PM 40.9500 -74.3333 75° East 246 283 5,000 -300 Descending New York TRACON
08:57PM 40.9500 -74.2500 90° East 248 285 4,500 -540 Descending New York TRACON
08:58PM 40.9167 -74.1833 123° Southeast 244 281 4,000 -600 Descending New York TRACON
08:59PM 40.8667 -74.1000 128° Southeast 240 276 3,300 -600 Descending New York TRACON
09:00PM 40.8167 -74.0833 166° South 195 224 2,800 -840 Descending New York TRACON
09:01PM 40.7833 -74.1167 217° Southwest 167 192 1,700 -900 Descending New York TRACON
09:02PM 40.7333 -74.1333 194° South 137 158 1,000 -720 Descending New York TRACON